Kapuskasing Airport
CYYU : now visible

Airfield :











YOU CAN JOIN US ON...

 
LOGIN :

Register | Disclaimer

   EN    FR    IT 

 









Legend :    VFR   Marginal VFR   IFR   Intensive IFR   Very Intensive IFR
Visi :
Ceiling :
>= 8 km
>= 3000ft
5 to 8 km
1000 to 3000 ft
1500m to 5 km
500 to 1000 ft
800 to 1500m
200 to 500 ft
< 800m
< 200 ft
Symbols :   Thunderstorms  Fog  Heavy snow  Heavy precipitations  Wind > 20 kt






- Airport Elevation : 743 ft
- IATA code : YYU


CYYU - Kapuskasing

CURRENT METAR :
  • 142000Z 15008G17KT 120V190 15SM SCT060 BKN070 BKN220 30/14 A3006 RMK CU3AC3CC1 SLP181 DENSITY ALT 2500FT

EXPIRED METARs :
  • 141900Z 20009G16KT 130V210 15SM SCT060 BKN240 30/15 A3007 RMK CU3CI3 SLP184 DENSITY ALT 2500FT
  • 141838Z 17009KT 15SM SCT064 BKN220 30/14 A3007 RMK CU3CI4 HZ SLP186 DENSITY ALT 2500FT
  • 141800Z 15008G15KT 120V200 15SM FEW050 BKN220 29/15 A3008 RMK CU1CI6 HZ SLP190 DENSITY ALT 2400FT

TAF TAF CYYU
Valid from the 14 at 20:00 until the 15 at 08:00 UTC


141938Z 1420/1508 20012KT P6SM SCT060
BECMG 1423/1501 15005KT SKC RMK NXT FCST BY 150200Z
CZYZ FIR / North America



MET'MAP, your aeronautical weather chart ! - Copyright ORBIFLY December 2007 - Disclaimer

ORBIFLY MET'MAP TEAM :

Programming & Development : Alexandra Zaïnal
Concept & original design : Baudouin d'Aumeries
Assistance for programming : Marc-Olivier Méhu
Technical & hardware support : Manuel Goepfert

Contact : metmap@orbifly.com




SOURCES & CREDITS :

   NOAA       Earth
Advisory